Terminal Aerodrome Forecast
Issued by NWS

Home | Current Version | Previous Version | Graphics & Text | Print | Product List | Glossary On
Versions: 1 2 3 4 5 6 7 8 9 10 11 12 13 14 15 16
161
FTUS43 KFGF 200520
TAFBJI
TAF
KBJI 200520Z 2006/2106 12008KT P6SM BKN200
     FM202300 09009KT P6SM VCSH OVC070
     FM210200 06009KT P6SM -SHRA OVC030
     FM210500 04007KT P6SM -SHRA OVC015=

USA.gov is the U.S. government's official web portal to all federal, state and local government web resources and services.